• Join FlightAware (Why Join?)
  • Login
  • US Flag 
09:02PM EST


 

Airport Tracker/Info


-or-


 

Live Flight TrackerFlight Track Log ✈ AAL832 ✈ 23-Jun-2013 ✈ KLAX - KORD

Flight Track Log - Related Links

Times and Time Zones

All times are in EDT time to prevent confusion due to time zone crossing. See the AAL832 flight status page for this flight to view local times or setup timezone preferences in your user account.

Time Position Orientation Groundspeed Altitude Reporting Facility
EDT Latitude Longitude Course Direction KTS MPH feet Rate Location/Type
12:50PM 33.9350 -118.4290 263° West 182 209 800  Level FlightAware
12:50PM 33.9300 -118.4570 258° West 190 219 1,700 1,680 Climbing FlightAware
12:51PM 33.9240 -118.4750 248° West 205 236 2,100 1,200 Climbing FlightAware
12:51PM 33.9130 -118.4880 224° Southwest 221 254 2,300 960 Climbing FlightAware
12:51PM 33.9000 -118.4960 207° Southwest 233 268 2,600 1,200 Climbing FlightAware
12:51PM 33.8880 -118.4980 188° South 241 277 2,800 1,500 Climbing FlightAware
12:52PM 33.8540 -118.5020 186° South 261 300 3,600 1,860 Climbing FlightAware
12:52PM 33.8160 -118.5080 187° South 272 313 4,700 1,800 Climbing FlightAware
12:53PM 33.7890 -118.5120 187° South 283 326 5,300 1,920 Climbing FlightAware
12:53PM 33.7460 -118.5160 184° South 290 334 6,500 2,220 Climbing FlightAware
12:54PM 33.6970 -118.5000 165° South 296 341 7,900 1,920 Climbing FlightAware
12:54PM 33.6870 -118.4860 131° Southeast 302 348 8,300 3,060 Climbing FlightAware
12:54PM 33.6720 -118.4350 109° East 309 356 9,500 2,880 Climbing FlightAware
12:55PM 33.6490 -118.3570 109° East 315 362 11,300 1,800 Climbing FlightAware
12:56PM 33.6450 -118.2680 93° East 354 407 12,400 1,860 Climbing FlightAware
12:57PM 33.6450 -118.1750 90° East 366 421 14,300 1,860 Climbing FlightAware
12:57PM 33.6450 -118.0910 90° East 402 463 15,100 1,440 Climbing FlightAware
12:58PM 33.6450 -117.9930 90° East 425 489 16,300 1,920 Climbing FlightAware
12:59PM 33.6440 -117.8980 91° East 432 497 17,800 2,100 Climbing FlightAware
01:00PM 33.6440 -117.7970 90° East 442 509 19,200 1,860 Climbing FlightAware
01:00PM 33.6440 -117.7080 90° East 449 517 20,500 1,920 Climbing FlightAware
01:01PM 33.6430 -117.5900 91° East 460 529 21,900 1,920 Climbing FlightAware
01:02PM 33.6430 -117.4700 90° East 472 543 23,200 1,620 Climbing FlightAware
01:02PM 33.6420 -117.3580 91° East 482 555 24,300 1,620 Climbing FlightAware
01:03PM 33.6410 -117.2690 91° East 487 560 25,300 1,560 Climbing FlightAware
01:04PM 33.6480 -117.1650 85° East 494 568 26,200 1,320 Climbing FlightAware
01:04PM 33.6640 -117.0830 77° East 502 578 26,800 1,080 Climbing FlightAware
01:05PM 33.6880 -116.9610 77° East 513 590 27,600 1,080 Climbing FlightAware
01:06PM 33.7110 -116.8410 77° East 523 602 28,400 1,260 Climbing FlightAware
01:06PM 33.7360 -116.7080 77° East 524 603 29,500 1,440 Climbing FlightAware
01:07PM 33.7500 -116.6220 79° East 521 600 30,300 1,500 Climbing FlightAware
01:08PM 33.7680 -116.5060 79° East 517 595 31,400 1,440 Climbing FlightAware
01:08PM 33.7910 -116.3680 79° East 515 593 32,500 1,320 Climbing FlightAware
01:09PM 33.8100 -116.2490 79° East 514 592 33,400 1,200 Climbing FlightAware
01:10PM 33.8290 -116.1300 79° East 515 593 34,200 1,080 Climbing FlightAware
01:10PM 33.8450 -116.0360 78° East 516 594 34,800 540 Climbing FlightAware
01:11PM 33.8620 -115.9290 79° East 516 594 34,900 60 Climbing FlightAware
01:12PM 33.8810 -115.8090 79° East 516 594 34,900  Level FlightAware
01:13PM 33.8970 -115.7130 79° East 516 594 34,900  Level FlightAware
01:13PM 33.9110 -115.6260 79° East 516 594 34,900  Level FlightAware
01:14PM 33.9280 -115.5160 79° East 516 594 34,900  Level FlightAware
01:15PM 33.9480 -115.3940 79° East 516 594 34,900  Level FlightAware
01:16PM 33.9700 -115.2590 79° East 516 594 34,900  Level FlightAware
01:16PM 33.9880 -115.1490 79° East 516 594 34,900  Level FlightAware
01:17PM 34.0120 -115.0000 79° East 516 594 34,900  Level FlightAware
01:18PM 34.0260 -114.9080 80° East 516 594 34,900 900 Level FlightAware
01:19PM 34.0680 -114.5820 81° East 37,000 1,260 Climbing FlightAware
01:20PM 34.0910 -114.4290 80° East 526 605 37,000  Level FlightAware
01:20PM 34.1080 -114.3070 80° East 527 606 37,000  Level FlightAware
01:21PM 34.1250 -114.1910 80° East 528 608 37,000  Level FlightAware
01:22PM 34.1440 -114.0580 80° East 528 608 37,000  Level FlightAware
01:22PM 34.1550 -113.9840 80° East 526 605 37,000  Level FlightAware
01:23PM 34.1720 -113.8660 80° East 525 604 37,000  Level FlightAware
01:24PM 34.1870 -113.7570 81° East 525 604 37,000  Level FlightAware
01:24PM 34.2030 -113.6440 80° East 523 602 37,000  Level FlightAware
01:25PM 34.2210 -113.5110 81° East 524 603 37,000  Level FlightAware
01:26PM 34.2360 -113.4060 80° East 523 602 37,000  Level FlightAware
01:26PM 34.2530 -113.2810 81° East 523 602 37,000  Level FlightAware
01:27PM 34.2670 -113.1770 81° East 524 603 37,000  Level FlightAware
01:28PM 34.2830 -113.0620 80° East 525 604 37,000  Level FlightAware
01:28PM 34.2960 -112.9630 81° East 527 606 37,000  Level FlightAware
01:29PM 34.3140 -112.8270 81° East 531 611 37,000  Level FlightAware
01:30PM 34.3290 -112.7170 81° East 532 612 37,000  Level FlightAware
01:30PM 34.3470 -112.5800 81° East 534 615 37,000  Level FlightAware
01:31PM 34.3630 -112.4530 81° East 535 616 37,000  Level FlightAware
01:32PM 34.3780 -112.3470 80° East 535 616 37,000  Level FlightAware
01:33PM 34.3960 -112.2060 81° East 534 615 37,000  Level FlightAware
01:33PM 34.4090 -112.0930 82° East 534 615 37,000  Level FlightAware
01:34PM 34.4220 -111.9880 81° East 533 613 37,000  Level FlightAware
01:34PM 34.4380 -111.8640 81° East 531 611 37,000  Level FlightAware
01:35PM 34.4540 -111.7350 81° East 530 610 37,000  Level FlightAware
01:36PM 34.4660 -111.6300 82° East 528 608 37,000  Level FlightAware
01:37PM 34.4830 -111.4970 81° East 526 605 37,000  Level FlightAware
01:37PM 34.4980 -111.3740 82° East 524 603 37,000  Level FlightAware
01:38PM 34.5130 -111.2460 82° East 524 603 37,000  Level FlightAware
01:39PM 34.5270 -111.1250 82° East 523 602 37,000  Level FlightAware
01:39PM 34.5400 -111.0180 82° East 523 602 37,000  Level FlightAware
01:40PM 34.5520 -110.9130 82° East 522 601 37,000  Level FlightAware
01:41PM 34.5650 -110.8010 82° East 524 603 37,000  Level FlightAware
01:41PM 34.5790 -110.6810 82° East 526 605 37,000  Level FlightAware
01:42PM 34.5930 -110.5570 82° East 526 605 37,000  Level FlightAware
01:43PM 34.6020 -110.4750 82° East 523 602 37,000  Level FlightAware
01:43PM 34.6210 -110.3110 82° East 520 598 37,000  Level FlightAware
01:44PM 34.6290 -110.2320 83° East 521 600 37,000  Level FlightAware
01:44PM 34.6410 -110.1230 82° East 519 597 37,000  Level FlightAware
01:45PM 34.6550 -109.9930 83° East 520 598 37,000  Level FlightAware
01:46PM 34.6670 -109.8810 83° East 520 598 37,000  Level FlightAware
01:47PM 34.6790 -109.7760 82° East 520 598 37,000  Level FlightAware
01:47PM 34.6910 -109.6610 83° East 519 597 37,000  Level FlightAware
01:48PM 34.7030 -109.5510 82° East 520 598 37,000  Level FlightAware
01:48PM 34.7160 -109.4240 83° East 518 596 37,000  Level FlightAware
01:49PM 34.7290 -109.3000 83° East 519 597 37,000  Level FlightAware
01:50PM 34.7410 -109.1810 83° East 518 596 37,000  Level FlightAware
01:51PM 34.7540 -109.0530 83° East 518 596 37,000  Level FlightAware
01:51PM 34.7650 -108.9400 83° East 518 596 37,000  Level FlightAware
01:52PM 34.7800 -108.7900 83° East 518 596 37,000  Level FlightAware
01:53PM 34.7890 -108.7030 83° East 518 596 37,000  Level FlightAware
01:54PM 34.7980 -108.6070 83° East 518 596 37,000  Level FlightAware
01:54PM 34.8080 -108.5160 82° East 518 596 37,000  Level FlightAware
01:55PM 34.8170 -108.4280 83° East 518 596 37,000  Level FlightAware
01:56PM 34.8260 -108.3370 83° East 518 596 37,000  Level FlightAware
01:56PM 34.8390 -108.2090 83° East 518 596 37,000  Level FlightAware
01:57PM 34.8500 -108.0930 83° East 518 596 37,000  Level FlightAware
01:58PM 34.8750 -107.7800 84° East 514 592 37,000  Level FlightAware
01:59PM 34.8850 -107.6670 84° East 511 588 37,000  Level FlightAware
01:59PM 34.8940 -107.5590 84° East 511 588 37,000  Level FlightAware
02:00PM 34.9070 -107.4220 83° East 510 587 37,000  Level FlightAware
02:01PM 34.9150 -107.3260 84° East 510 587 37,000  Level FlightAware
02:01PM 34.9240 -107.2200 84° East 510 587 37,000  Level FlightAware
02:02PM 34.9310 -107.1380 84° East 510 587 37,000  Level FlightAware
02:02PM 34.9410 -107.0210 84° East 510 587 37,000  Level FlightAware
02:03PM 34.9510 -106.8910 85° East 508 585 37,000  Level FlightAware
02:04PM 34.9620 -106.7670 84° East 505 581 37,000  Level FlightAware
02:05PM 34.9710 -106.6520 85° East 506 582 37,000  Level FlightAware
02:05PM 34.9810 -106.5280 84° East 503 579 37,000  Level FlightAware
02:06PM 34.9900 -106.4170 84° East 502 578 37,000  Level FlightAware
02:07PM 34.9990 -106.2980 85° East 501 577 37,000  Level FlightAware
02:07PM 35.0070 -106.1930 85° East 498 573 37,000  Level FlightAware
02:08PM 35.0110 -106.1430 84° East 498 573 37,000  Level FlightAware
02:09PM 35.0230 -105.9830 85° East 498 573 37,000  Level FlightAware
02:09PM 35.0290 -105.9060 85° East 496 571 37,000  Level FlightAware
02:10PM 35.0390 -105.7680 85° East 498 573 37,000  Level FlightAware
02:11PM 35.0470 -105.6770 84° East 498 573 37,000  Level FlightAware
02:11PM 35.0550 -105.5340 86° East 499 574 37,000  Level FlightAware
02:12PM 35.0640 -105.4180 85° East 500 575 37,000  Level FlightAware
02:13PM 35.0740 -105.2760 85° East 500 575 37,000  Level FlightAware
02:14PM 35.0800 -105.1850 85° East 500 575 37,000  Level FlightAware
02:14PM 35.0880 -105.0700 85° East 500 575 37,000  Level FlightAware
02:15PM 35.0940 -104.9880 85° East 500 575 37,000  Level FlightAware
02:16PM 35.1020 -104.8730 85° East 500 575 37,000  Level FlightAware
02:17PM 35.1100 -104.7630 85° East 500 575 37,000  Level FlightAware
02:17PM 35.1160 -104.6770 85° East 500 575 37,000  Level FlightAware
02:18PM 35.1250 -104.5600 85° East 500 575 37,000  Level FlightAware
02:18PM 35.1290 -104.4970 86° East 500 575 37,000  Level FlightAware
02:19PM 35.1350 -104.4110 85° East 500 575 37,000  Level FlightAware
02:20PM 35.1420 -104.3250 84° East 500 575 37,000  Level FlightAware
02:20PM 35.1490 -104.2150 86° East 500 575 37,000  Level FlightAware
02:21PM 35.1560 -104.1290 84° East 500 575 37,000  Level FlightAware
02:22PM 35.1640 -104.0140 85° East 500 575 37,000  Level FlightAware
02:22PM 35.1700 -103.9250 85° East 500 575 37,000  Level FlightAware
02:23PM 35.1814 -103.5392 85° East 491 565 37,000  Level Albuquerque Center
02:24PM 35.1903 -103.3711 86° East 493 567 37,000  Level Albuquerque Center
02:25PM 35.1989 -103.2033 86° East 492 566 37,000  Level Albuquerque Center
02:26PM 35.2078 -103.0358 86° East 492 566 37,000  Level Albuquerque Center
02:27PM 35.2156 -102.8592 87° East 492 566 37,000  Level Albuquerque Center
02:28PM 35.2231 -102.6922 87° East 494 568 37,000  Level Albuquerque Center
02:29PM 35.2311 -102.5239 87° East 496 571 37,000  Level Albuquerque Center
02:30PM 35.2406 -102.3236 87° East 495 570 37,000  Level Albuquerque Center
02:32PM 35.2467 -102.1558 87° East 495 570 37,000  Level Albuquerque Center
02:33PM 35.2542 -101.9894 87° East 492 566 37,000  Level Albuquerque Center
02:34PM 35.2667 -101.8256 85° East 494 568 37,000  Level Albuquerque Center
02:35PM 35.2744 -101.6300 87° East 490 564 37,000  Level Albuquerque Center
02:36PM 35.2767 -101.4908 89° East 489 563 37,000  Level Albuquerque Center
02:37PM 35.2819 -101.3075 88° East 490 564 37,000  Level Albuquerque Center
02:38PM 35.2881 -101.1433 87° East 487 560 37,000  Level Albuquerque Center
02:39PM 35.2933 -100.9806 88° East 481 554 37,000  Level Albuquerque Center
02:40PM 35.3008 -100.7853 87° East 481 554 37,000  Level Albuquerque Center
02:41PM 35.3044 -100.6364 88° East 480 552 37,000  Level Albuquerque Center
02:42PM 35.3122 -100.4742 87° East 478 550 37,000  Level Albuquerque Center
02:43PM 35.3231 -100.2786 86° East 480 552 37,000  Level Albuquerque Center
02:44PM 35.3614 -100.1208 73° East 482 555 37,000  Level Albuquerque Center
02:45PM 35.3942 -99.9600 76° East 486 559 37,000  Level Albuquerque Center
02:46PM 35.4275 -99.8000 76° East 484 557 37,000  Level Albuquerque Center
02:47PM 35.4600 -99.6397 76° East 485 558 37,000  Level Albuquerque Center
02:48PM 35.4867 -99.5067 76° East 486 559 37,000  Level Fort Worth Center
02:49PM 35.5183 -99.3517 76° East 481 554 37,000  Level Fort Worth Center
02:54PM 35.7000 -98.4640 76° East 488 562 37,000  Level FlightAware
02:55PM 35.7180 -98.3760 76° East 487 560 37,000  Level FlightAware
02:55PM 35.7370 -98.2770 77° East 486 559 37,000  Level FlightAware
02:56PM 35.7560 -98.1770 77° East 486 559 37,000  Level FlightAware
02:57PM 35.7960 -97.9730 76° East 484 557 37,000  Level FlightAware
02:58PM 35.8250 -97.8210 77° East 483 556 37,000  Level FlightAware
02:59PM 35.8440 -97.7280 76° East 483 556 37,000  Level FlightAware
03:00PM 35.8720 -97.5910 76° East 483 556 37,000  Level FlightAware
03:00PM 35.9090 -97.5420 47° Northeast 480 552 37,000  Level FlightAware
03:01PM 35.9670 -97.4510 52° Northeast 479 551 37,000  Level FlightAware
03:01PM 36.0180 -97.3720 51° Northeast 478 550 37,000  Level FlightAware
03:02PM 36.0970 -97.2490 51° Northeast 477 549 37,000  Level FlightAware
03:03PM 36.1560 -97.1550 52° Northeast 475 547 37,000  Level FlightAware
03:04PM 36.2210 -97.0530 52° Northeast 475 547 37,000  Level FlightAware
03:05PM 36.2960 -96.9420 50° Northeast 473 544 37,000  Level FlightAware
03:05PM 36.3650 -96.8660 42° Northeast 470 541 37,000  Level FlightAware
03:06PM 36.4290 -96.7950 42° Northeast 469 540 37,000  Level FlightAware
03:08PM 36.5850 -96.6180 42° Northeast 467 537 37,000  Level FlightAware
03:08PM 36.6360 -96.5310 54° Northeast 467 537 37,000  Level FlightAware
03:09PM 36.6820 -96.4530 54° Northeast 467 537 37,000  Level FlightAware
03:10PM 36.7400 -96.3550 54° Northeast 467 537 37,000  Level FlightAware
03:10PM 36.7960 -96.2610 53° Northeast 471 542 37,000  Level FlightAware
03:12PM 36.8820 -96.1170 53° Northeast 476 548 37,000  Level FlightAware
03:12PM 36.9450 -96.0100 54° Northeast 476 548 37,000  Level FlightAware
03:13PM 36.9980 -95.9210 53° Northeast 477 549 37,000  Level FlightAware
03:14PM 37.0520 -95.8290 54° Northeast 478 550 37,000  Level FlightAware
03:14PM 37.1090 -95.7320 54° Northeast 476 548 37,000  Level FlightAware
03:15PM 37.1640 -95.6390 53° Northeast 475 547 37,000  Level FlightAware
03:16PM 37.2160 -95.5490 54° Northeast 475 547 37,000  Level FlightAware
03:17PM 37.2760 -95.4470 54° Northeast 475 547 37,000  Level FlightAware
03:17PM 37.3230 -95.3660 54° Northeast 475 547 37,000  Level FlightAware
03:18PM 37.3820 -95.2640 54° Northeast 474 545 37,000  Level FlightAware
03:19PM 37.4350 -95.1720 54° Northeast 475 547 37,000  Level FlightAware
03:19PM 37.4850 -95.0850 54° Northeast 474 545 37,000  Level FlightAware
03:20PM 37.5400 -94.9900 54° Northeast 474 545 37,000  Level FlightAware
03:21PM 37.5970 -94.8900 54° Northeast 473 544 37,000  Level FlightAware
03:21PM 37.6320 -94.8300 54° Northeast 472 543 37,000  Level FlightAware
03:22PM 37.7010 -94.7050 55° Northeast 470 541 37,000  Level FlightAware
03:23PM 37.7490 -94.6130 57° Northeast 468 539 37,000  Level FlightAware
03:23PM 37.8000 -94.5120 57° Northeast 467 537 37,000  Level FlightAware
03:24PM 37.8450 -94.4160 59° Northeast 465 535 37,000  Level FlightAware
03:25PM 37.8850 -94.3310 59° Northeast 462 532 37,000  Level FlightAware
03:26PM 37.9320 -94.2330 59° Northeast 459 528 37,000  Level FlightAware
03:26PM 37.9800 -94.1310 59° Northeast 457 526 37,000  Level FlightAware
03:27PM 38.0230 -94.0380 60° Northeast 458 527 37,000  Level FlightAware
03:28PM 38.0670 -93.9450 59° Northeast 461 531 37,000  Level FlightAware
03:28PM 38.1130 -93.8440 60° Northeast 462 532 37,000  Level FlightAware
03:29PM 38.1480 -93.7510 64° Northeast 459 528 37,000  Level FlightAware
03:30PM 38.1590 -93.6360 83° East 448 516 37,000  Level FlightAware
03:31PM 38.1710 -93.4930 84° East 445 512 37,000  Level FlightAware
03:31PM 38.1800 -93.3820 84° East 444 511 37,000  Level FlightAware
03:32PM 38.1900 -93.2670 84° East 445 512 37,000  Level FlightAware
03:33PM 38.1960 -93.1590 86° East 445 512 37,000  Level FlightAware
03:34PM 38.2050 -93.0060 86° East 443 510 37,000  Level FlightAware
03:34PM 38.2060 -92.9100 89° East 443 510 37,000  Level FlightAware
03:35PM 38.2240 -92.7990 78° East 440 506 37,000  Level FlightAware
03:36PM 38.2460 -92.6920 75° East 439 505 37,000  Level FlightAware
03:36PM 38.2640 -92.6010 76° East 440 506 37,000  Level FlightAware
03:37PM 38.2790 -92.5240 76° East 440 506 37,000  Level FlightAware
03:38PM 38.2960 -92.4360 76° East 441 507 37,000  Level FlightAware
03:38PM 38.3170 -92.3290 76° East 441 507 37,000  Level FlightAware
03:39PM 38.3340 -92.2410 76° East 441 507 37,000  Level FlightAware
03:40PM 38.3500 -92.1620 75° East 441 507 37,000  Level FlightAware
03:41PM 38.3750 -92.0330 76° East 441 507 37,000  Level FlightAware
03:41PM 38.3940 -91.9340 76° East 441 507 37,000  Level FlightAware
03:42PM 38.4090 -91.8610 75° East 441 507 37,000  Level FlightAware
03:43PM 38.4290 -91.7580 76° East 441 507 37,000  Level FlightAware
03:43PM 38.4450 -91.6740 76° East 441 507 37,000  Level FlightAware
03:44PM 38.6540 -91.5050 32° Northeast 453 521 37,000  Level FlightAware
03:45PM 38.7120 -91.4130 51° Northeast 450 518 37,000  Level FlightAware
03:46PM 38.7660 -91.3320 49° Northeast 450 518 37,000  Level FlightAware
03:46PM 38.8080 -91.2670 50° Northeast 450 518 37,000  Level FlightAware
03:47PM 38.8870 -91.1650 45° Northeast 452 520 37,000  Level FlightAware
03:48PM 38.9390 -91.0940 47° Northeast 453 521 37,000  Level FlightAware
03:49PM 39.0500 -90.9510 45° Northeast 465 535 37,000  Level FlightAware
03:50PM 39.1310 -90.8770 35° Northeast 464 534 37,000  Level FlightAware
03:50PM 39.2020 -90.8160 34° Northeast 465 535 37,000  Level FlightAware
03:51PM 39.2720 -90.7550 34° Northeast 465 535 37,000 -480 Level FlightAware
03:52PM 39.3420 -90.6940 34° Northeast 463 533 36,400 -1,140 Descending FlightAware
03:52PM 39.4280 -90.6180 34° Northeast 462 532 35,500 -1,020 Descending FlightAware
03:53PM 39.5010 -90.5530 34° Northeast 457 526 34,900 -960 Descending FlightAware
03:54PM 39.5720 -90.4900 34° Northeast 460 529 34,200 -1,020 Descending FlightAware
03:54PM 39.6500 -90.4210 34° Northeast 457 526 33,500 -600 Descending FlightAware
03:55PM 39.7390 -90.3430 34° Northeast 458 527 33,200 -360 Descending FlightAware
03:56PM 39.8250 -90.2650 35° Northeast 459 528 33,000 -180 Descending FlightAware
03:57PM 39.8960 -90.2010 35° Northeast 458 527 33,000  Level FlightAware
03:57PM 39.9670 -90.1380 34° Northeast 461 531 33,000  Level FlightAware
03:58PM 40.0390 -90.0700 36° Northeast 465 535 33,000  Level FlightAware
03:59PM 40.1080 -89.9990 38° Northeast 467 537 33,000  Level FlightAware
04:00PM 40.1810 -89.9230 38° Northeast 467 537 33,000  Level FlightAware
04:00PM 40.2510 -89.8510 38° Northeast 467 537 33,000 -360 Level FlightAware
04:01PM 40.3250 -89.7750 38° Northeast 472 543 32,500 -840 Descending FlightAware
04:02PM 40.4010 -89.6970 38° Northeast 476 548 31,800 -1,020 Descending FlightAware
04:02PM 40.4630 -89.6330 38° Northeast 479 551 31,200 -1,200 Descending FlightAware
04:03PM 40.5460 -89.5470 38° Northeast 481 554 30,200 -1,980 Descending FlightAware
04:04PM 40.6170 -89.4720 39° Northeast 472 543 28,300 -2,580 Descending FlightAware
04:04PM 40.6740 -89.4130 38° Northeast 468 539 26,700 -2,880 Descending FlightAware
04:05PM 40.7570 -89.3260 38° Northeast 460 529 24,400 -1,980 Descending FlightAware
04:06PM 40.8250 -89.2540 39° Northeast 437 503 24,000 -600 Descending FlightAware
04:07PM 40.8970 -89.1780 39° Northeast 433 498 23,600 -960 Descending FlightAware
04:07PM 40.9610 -89.1100 39° Northeast 431 496 22,600 -1,800 Descending FlightAware
04:08PM 41.0180 -89.0490 39° Northeast 423 487 21,200 -2,760 Descending FlightAware
04:09PM 41.0870 -88.9760 39° Northeast 421 484 18,900 -3,180 Descending FlightAware
04:09PM 41.1510 -88.9080 39° Northeast 403 464 16,700 -2,940 Descending FlightAware
04:10PM 41.2090 -88.8460 39° Northeast 400 460 14,900 -2,640 Descending FlightAware
04:11PM 41.3100 -88.7370 39° Northeast 386 444 11,900 -2,100 Descending FlightAware
04:12PM 41.3650 -88.6780 39° Northeast 364 419 11,000 -720 Descending FlightAware
04:13PM 41.4190 -88.6200 39° Northeast 389 448 11,000  Level FlightAware
04:13PM 41.4810 -88.5530 39° Northeast 369 425 11,000  Level FlightAware
04:14PM 41.5340 -88.4960 39° Northeast 367 422 11,000  Level FlightAware
04:15PM 41.5830 -88.4430 39° Northeast 370 426 11,000  Level FlightAware
04:15PM 41.6480 -88.3720 39° Northeast 348 400 11,000 -360 Level FlightAware
04:16PM 41.6940 -88.3200 40° Northeast 321 369 10,500 -1,020 Descending FlightAware
04:17PM 41.7200 -88.2770 51° Northeast 314 361 9,900 -1,260 Descending FlightAware
04:17PM 41.7340 -88.2520 53° Northeast 309 356 9,600 -1,320 Descending FlightAware
04:17PM 41.7560 -88.2140 52° Northeast 305 351 9,000 -1,380 Descending FlightAware
04:18PM 41.7760 -88.1810 51° Northeast 301 346 8,500 -1,380 Descending FlightAware
04:18PM 41.7940 -88.1490 53° Northeast 300 345 8,000 -720 Descending FlightAware
04:18PM 41.8200 -88.1110 47° Northeast 280 322 7,900 -240 Descending FlightAware
04:19PM 41.8510 -88.1020 12° North 252 290 7,800 -660 Descending FlightAware
04:19PM 41.8840 -88.1010 North 248 285 7,300 -900 Descending FlightAware
04:20PM 41.9130 -88.1000 North 245 282 7,000 -480 Descending FlightAware
04:20PM 41.9270 -88.0990 North 245 282 7,000  Level FlightAware
04:21PM 41.9620 -88.0980 North 249 287 7,000  Level FlightAware
04:21PM 41.9920 -88.0970 North 219 252 7,000 -480 Level FlightAware
04:21PM 42.0170 -88.1080 342° North 202 232 6,600 -1,200 Descending FlightAware
04:22PM 42.0400 -88.1240 333° Northwest 203 234 5,900 -1,620 Descending FlightAware
04:22PM 42.0630 -88.1350 340° North 210 242 5,200 -1,500 Descending FlightAware
04:23PM 42.0870 -88.1140 33° Northeast 219 252 4,500 -1,500 Descending FlightAware
04:23PM 42.0900 -88.1010 73° East 212 244 4,200 -1,500 Descending FlightAware
04:24PM 42.0830 -88.0580 102° East 192 221 3,400 -1,200 Descending FlightAware
04:24PM 42.0760 -88.0330 111° Southeast 180 207 3,000 -1,020 Descending FlightAware
04:24PM 42.0690 -88.0220 131° Southeast 175 201 2,800 -1,080 Descending FlightAware
04:25PM 42.0520 -88.0020 139° Southeast 173 199 2,300 -1,140 Descending FlightAware
04:25PM 42.0340 -87.9820 140° Southeast 153 176 1,700 -960 Descending FlightAware
04:26PM 42.0200 -87.9660 140° Southeast 139 160 1,400 -780 Descending FlightAware
04:26PM 42.0070 -87.9520 141° Southeast 144 166 1,000 -780 Descending FlightAware
04:27PM 41.9920 -87.9350 140° Southeast 146 168 700 -600 Descending FlightAware
04:27PM 41.9880 -87.9300 137° Southeast 146 168 600 -540 Descending FlightAware